^^
Saratoga-Weather Station Historical Data
Daily Summary for January 10, 2020 Units:  English    Metric   Both
Daily Weekly Monthly Yearly Custom
  High: Low: Average:
Temperature: 38.3 °F 32.2 °F 34.7 °F
Dew Point: 33.8 °F 30.9 °F 32.5 °F
Humidity: 96% 81% 92%
Wind Speed: 4mph 0mph 0.7mph
Wind Gust: 7mph - -
Wind- - East
Pressure: 29.8 in 29.7 in -
Precipitation: 0 in    
Historical Graphs
 
 
Tabular Data for January 10, 2020
Time Temperature Dew Point Pressure Wind Wind Speed Wind Gust Humidity Rainfall Rate (Hourly) solar
00:01 34.9 °F 33.6 °F 29.8 in Calm     95% 0 in 0 W/m2
00:06 34.9 °F 33.6 °F 29.8 in Calm     95% 0 in 0 W/m2
00:11 34.9 °F 33.6 °F 29.8 in Calm     95% 0 in 0 W/m2
00:16 34.9 °F 33.6 °F 29.8 in NNE 0.9 mph 2 mph 95% 0 in 0 W/m2
00:21 35.1 °F 33.8 °F 29.8 in Calm   1 mph 95% 0 in 0 W/m2
00:26 35.1 °F 33.8 °F 29.8 in East 0.9 mph 2 mph 95% 0 in 0 W/m2
00:31 35.1 °F 33.8 °F 29.8 in SE 0.9 mph 1 mph 95% 0 in 0 W/m2
00:36 35.1 °F 33.8 °F 29.8 in Calm   1 mph 95% 0 in 0 W/m2
00:41 34.9 °F 33.6 °F 29.8 in SE 0.9 mph 2 mph 95% 0 in 0 W/m2
00:46 34.9 °F 33.6 °F 29.8 in Calm     95% 0 in 0 W/m2
00:51 34.9 °F 33.6 °F 29.8 in SE 0.9 mph 1 mph 95% 0 in 0 W/m2
00:56 34.9 °F 33.6 °F 29.8 in SE 0.9 mph 1 mph 95% 0 in 0 W/m2
01:01 34.9 °F 33.6 °F 29.8 in Calm     95% 0 in 0 W/m2
01:06 34.9 °F 33.6 °F 29.8 in Calm     95% 0 in 0 W/m2
01:11 34.9 °F 33.6 °F 29.8 in SE 0.9 mph 1 mph 95% 0 in 0 W/m2
01:16 34.9 °F 33.6 °F 29.8 in Calm     95% 0 in 0 W/m2
01:21 34.9 °F 33.6 °F 29.8 in Calm     95% 0 in 0 W/m2
01:26 34.9 °F 33.6 °F 29.8 in Calm     95% 0 in 0 W/m2
01:31 34.9 °F 33.6 °F 29.8 in Calm     95% 0 in 0 W/m2
01:36 34.9 °F 33.6 °F 29.8 in Calm     95% 0 in 0 W/m2
01:41 34.7 °F 33.4 °F 29.8 in Calm   1 mph 95% 0 in 0 W/m2
01:46 34.7 °F 33.4 °F 29.8 in Calm     95% 0 in 0 W/m2
01:51 34.7 °F 33.4 °F 29.8 in Calm     95% 0 in 0 W/m2
01:56 34.7 °F 33.4 °F 29.8 in Calm     95% 0 in 0 W/m2
02:01 34.5 °F 33.3 °F 29.8 in Calm   1 mph 95% 0 in 0 W/m2
02:06 34.5 °F 33.3 °F 29.8 in Calm     95% 0 in 0 W/m2
02:11 34.5 °F 33.3 °F 29.8 in Calm   1 mph 95% 0 in 0 W/m2
02:16 34.5 °F 33.3 °F 29.8 in Calm     95% 0 in 0 W/m2
02:21 34.5 °F 33.3 °F 29.8 in Calm     95% 0 in 0 W/m2
02:26 34.5 °F 33.3 °F 29.8 in Calm     95% 0 in 0 W/m2
02:31 34.3 °F 33.1 °F 29.8 in Calm     95% 0 in 0 W/m2
02:36 34.3 °F 33.1 °F 29.8 in Calm     95% 0 in 0 W/m2
02:41 34.3 °F 33.1 °F 29.8 in Calm     95% 0 in 0 W/m2
02:46 34.3 °F 33.1 °F 29.8 in Calm     95% 0 in 0 W/m2
02:51 34.3 °F 33.1 °F 29.8 in Calm     95% 0 in 0 W/m2
02:56 34.3 °F 33.1 °F 29.8 in Calm     95% 0 in 0 W/m2
03:01 34.3 °F 33.1 °F 29.8 in Calm     95% 0 in 0 W/m2
03:06 34.3 °F 33.1 °F 29.8 in Calm     95% 0 in 0 W/m2
03:11 34.3 °F 33.1 °F 29.8 in Calm     95% 0 in 0 W/m2
03:16 34.3 °F 33.1 °F 29.8 in Calm     95% 0 in 0 W/m2
03:21 34.2 °F 32.9 °F 29.8 in Calm     95% 0 in 0 W/m2
03:26 34.2 °F 32.9 °F 29.7 in Calm     95% 0 in 0 W/m2
03:31 34.2 °F 32.9 °F 29.7 in Calm     95% 0 in 0 W/m2
03:36 34 °F 32.7 °F 29.7 in Calm     95% 0 in 0 W/m2
03:41 34 °F 32.7 °F 29.7 in Calm     95% 0 in 0 W/m2
03:46 34 °F 32.7 °F 29.7 in Calm     95% 0 in 0 W/m2
03:51 34 °F 32.7 °F 29.7 in Calm     95% 0 in 0 W/m2
03:56 34 °F 32.7 °F 29.7 in Calm     95% 0 in 0 W/m2
04:01 34 °F 32.7 °F 29.7 in Calm     95% 0 in 0 W/m2
04:06 33.8 °F 32.5 °F 29.7 in Calm     95% 0 in 0 W/m2
04:11 33.8 °F 32.5 °F 29.7 in Calm     95% 0 in 0 W/m2
04:16 33.8 °F 32.5 °F 29.7 in Calm     95% 0 in 0 W/m2
04:21 33.8 °F 32.7 °F 29.7 in Calm     96% 0 in 0 W/m2
04:26 33.6 °F 32.5 °F 29.7 in Calm     96% 0 in 0 W/m2
04:31 33.8 °F 32.7 °F 29.7 in Calm     96% 0 in 0 W/m2
04:36 33.8 °F 32.7 °F 29.7 in Calm     96% 0 in 0 W/m2
04:41 33.8 °F 32.7 °F 29.7 in Calm     96% 0 in 0 W/m2
04:46 33.8 °F 32.7 °F 29.7 in Calm     96% 0 in 0 W/m2
04:51 33.8 °F 32.7 °F 29.7 in Calm     96% 0 in 0 W/m2
04:56 33.8 °F 32.7 °F 29.7 in Calm     96% 0 in 0 W/m2
05:01 33.8 °F 32.7 °F 29.7 in Calm     96% 0 in 0 W/m2
05:06 33.6 °F 32.5 °F 29.7 in Calm     96% 0 in 0 W/m2
05:11 33.6 °F 32.5 °F 29.7 in Calm     96% 0 in 0 W/m2
05:16 33.6 °F 32.5 °F 29.7 in Calm     96% 0 in 0 W/m2
05:22 33.4 °F 32.2 °F 29.7 in Calm     95% 0 in 0 W/m2
05:27 33.4 °F 32.2 °F 29.7 in Calm   1 mph 95% 0 in 0 W/m2
05:32 33.4 °F 32.2 °F 29.7 in Calm     95% 0 in 0 W/m2
05:37 33.3 °F 32 °F 29.7 in ESE 0.9 mph 1 mph 95% 0 in 0 W/m2
05:42 33.3 °F 32.2 °F 29.7 in Calm   1 mph 96% 0 in 0 W/m2
05:47 33.3 °F 32.2 °F 29.7 in Calm     96% 0 in 0 W/m2
05:52 33.1 °F 31.8 °F 29.7 in Calm     95% 0 in 0 W/m2
05:57 32.9 °F 31.6 °F 29.7 in Calm     95% 0 in 0 W/m2
06:02 32.7 °F 31.5 °F 29.7 in Calm     95% 0 in 0 W/m2
06:07 32.4 °F 31.1 °F 29.7 in Calm     95% 0 in 0 W/m2
06:12 32.4 °F 31.1 °F 29.7 in Calm     95% 0 in 0 W/m2
06:17 32.2 °F 30.9 °F 29.7 in Calm     95% 0 in 0 W/m2
06:22 32.2 °F 30.9 °F 29.7 in Calm     95% 0 in 0 W/m2
06:27 32.2 °F 30.9 °F 29.7 in Calm     95% 0 in 0 W/m2
06:32 32.2 °F 31.1 °F 29.7 in Calm     96% 0 in 0 W/m2
06:37 32.2 °F 31.1 °F 29.7 in Calm     96% 0 in 0 W/m2
06:42 32.2 °F 31.1 °F 29.7 in Calm     96% 0 in 0 W/m2
06:47 32.2 °F 31.1 °F 29.7 in Calm     96% 0 in 0 W/m2
06:52 32.2 °F 31.1 °F 29.7 in Calm   1 mph 96% 0 in 0 W/m2
06:57 32.4 °F 31.3 °F 29.7 in Calm     96% 0 in 0 W/m2
07:02 32.4 °F 31.3 °F 29.7 in ESE 2 mph 2 mph 96% 0 in 0 W/m2
07:07 32.4 °F 31.3 °F 29.7 in ESE 0.9 mph 1 mph 96% 0 in 0 W/m2
07:12 32.5 °F 31.5 °F 29.7 in ESE 0.9 mph 2 mph 96% 0 in 0 W/m2
07:17 32.5 °F 31.5 °F 29.7 in ESE 0.9 mph 1 mph 96% 0 in 0 W/m2
07:22 32.5 °F 31.5 °F 29.7 in ESE 0.9 mph 2 mph 96% 0 in 0 W/m2
07:27 32.5 °F 31.5 °F 29.7 in Calm   2 mph 96% 0 in 0 W/m2
07:32 32.4 °F 31.3 °F 29.7 in Calm   1 mph 96% 0 in 0 W/m2
07:37 32.5 °F 31.5 °F 29.7 in Calm     96% 0 in 0 W/m2
07:42 32.5 °F 31.5 °F 29.7 in Calm     96% 0 in 0 W/m2
07:47 32.5 °F 31.5 °F 29.7 in Calm     96% 0 in 0 W/m2
07:52 32.5 °F 31.5 °F 29.7 in Calm   1 mph 96% 0 in 0 W/m2
07:57 32.5 °F 31.5 °F 29.7 in Calm   2 mph 96% 0 in 0 W/m2
08:02 32.5 °F 31.5 °F 29.7 in ESE 0.9 mph 2 mph 96% 0 in 0 W/m2
08:07 32.5 °F 31.5 °F 29.7 in Calm     96% 0 in 0 W/m2
08:12 32.5 °F 31.5 °F 29.7 in ESE 0.9 mph 2 mph 96% 0 in 5 W/m2
08:17 32.7 °F 31.6 °F 29.7 in Calm   1 mph 96% 0 in 0 W/m2
08:22 32.7 °F 31.6 °F 29.7 in ESE 0.9 mph 2 mph 96% 0 in 5 W/m2
08:27 32.7 °F 31.6 °F 29.7 in Calm   2 mph 96% 0 in 5 W/m2
08:32 32.7 °F 31.6 °F 29.7 in Calm     96% 0 in 7 W/m2
08:37 32.7 °F 31.6 °F 29.7 in ESE 2 mph 2 mph 96% 0 in 11 W/m2
08:42 32.7 °F 31.6 °F 29.7 in Calm   1 mph 96% 0 in 12 W/m2
08:47 32.7 °F 31.6 °F 29.7 in Calm   3 mph 96% 0 in 18 W/m2
08:52 32.9 °F 31.8 °F 29.7 in ESE 0.9 mph 1 mph 96% 0 in 23 W/m2
08:57 32.9 °F 31.8 °F 29.7 in ESE 0.9 mph 3 mph 96% 0 in 30 W/m2
09:02 32.9 °F 31.8 °F 29.7 in ESE 0.9 mph 3 mph 96% 0 in 39 W/m2
09:07 33.1 °F 31.8 °F 29.7 in Calm   3 mph 95% 0 in 46 W/m2
09:12 33.1 °F 32 °F 29.7 in ESE 0.9 mph 2 mph 96% 0 in 54 W/m2
09:17 33.1 °F 32 °F 29.7 in Calm   2 mph 96% 0 in 62 W/m2
09:22 33.3 °F 32.2 °F 29.7 in Calm   2 mph 96% 0 in 58 W/m2
09:27 33.3 °F 32 °F 29.7 in Calm   1 mph 95% 0 in 62 W/m2
09:32 33.4 °F 32.2 °F 29.7 in Calm   1 mph 95% 0 in 95 W/m2
09:37 33.4 °F 32.2 °F 29.7 in NE 2.9 mph 4 mph 95% 0 in 91 W/m2
09:42 33.6 °F 32.4 °F 29.7 in ENE 0.9 mph 2 mph 95% 0 in 90 W/m2
09:47 33.6 °F 32.4 °F 29.7 in Calm     95% 0 in 107 W/m2
09:52 33.8 °F 32.5 °F 29.7 in ENE 0.9 mph 2 mph 95% 0 in 114 W/m2
09:57 34 °F 32.4 °F 29.7 in Calm   2 mph 94% 0 in 102 W/m2
10:03 34.2 °F 32.5 °F 29.7 in NE 2 mph 3 mph 94% 0 in 105 W/m2
10:08 34.3 °F 32.7 °F 29.7 in East 2 mph 3 mph 94% 0 in 105 W/m2
10:13 34.3 °F 32.7 °F 29.7 in ENE 2 mph 2 mph 94% 0 in 86 W/m2
10:18 34.3 °F 32.5 °F 29.7 in East 0.9 mph 2 mph 93% 0 in 84 W/m2
10:23 34.5 °F 32.7 °F 29.7 in Calm     93% 0 in 90 W/m2
10:28 34.5 °F 32.7 °F 29.7 in ENE 0.9 mph 3 mph 93% 0 in 93 W/m2
10:33 34.5 °F 32.4 °F 29.7 in NE 2 mph 4 mph 92% 0 in 98 W/m2
10:38 34.5 °F 32.4 °F 29.7 in Calm   2 mph 92% 0 in 105 W/m2
10:43 34.9 °F 32.7 °F 29.7 in NNE 2 mph 4 mph 92% 0 in 114 W/m2
10:48 35.1 °F 32.7 °F 29.7 in ENE 2 mph 4 mph 91% 0 in 116 W/m2
10:53 35.2 °F 32.9 °F 29.7 in Calm   2 mph 91% 0 in 123 W/m2
10:58 35.4 °F 33.1 °F 29.7 in Calm   4 mph 91% 0 in 123 W/m2
11:03 35.4 °F 32.7 °F 29.7 in East 2 mph 3 mph 90% 0 in 132 W/m2
11:08 35.6 °F 32.7 °F 29.7 in NE 2.9 mph 4 mph 89% 0 in 132 W/m2
11:13 35.8 °F 32.9 °F 29.7 in ENE 2 mph 2 mph 89% 0 in 135 W/m2
11:18 36 °F 33.1 °F 29.7 in ESE 2 mph 4 mph 89% 0 in 134 W/m2
11:23 36.1 °F 33.3 °F 29.7 in ESE 0.9 mph 3 mph 89% 0 in 141 W/m2
11:28 36.1 °F 32.9 °F 29.7 in Calm   4 mph 88% 0 in 148 W/m2
11:33 36.3 °F 33.1 °F 29.7 in Calm   4 mph 88% 0 in 156 W/m2
11:38 36.7 °F 33.4 °F 29.7 in ENE 2 mph 2 mph 88% 0 in 156 W/m2
11:43 37 °F 33.6 °F 29.7 in Calm   2 mph 87% 0 in 151 W/m2
11:48 37.2 °F 33.8 °F 29.7 in East 0.9 mph 2 mph 87% 0 in 148 W/m2
11:53 37.6 °F 33.8 °F 29.7 in NE 0.9 mph 4 mph 86% 0 in 146 W/m2
11:58 37.6 °F 33.4 °F 29.7 in ESE 2.9 mph 6 mph 85% 0 in 139 W/m2
12:03 37.6 °F 33.3 °F 29.7 in SE 0.9 mph 5 mph 84% 0 in 135 W/m2
12:08 37.6 °F 33.3 °F 29.7 in East 2 mph 6 mph 84% 0 in 128 W/m2
12:13 37.6 °F 33.3 °F 29.7 in East 4 mph 5 mph 84% 0 in 137 W/m2
12:18 37.6 °F 32.9 °F 29.7 in ESE 2 mph 2 mph 83% 0 in 156 W/m2
12:23 37.8 °F 33.1 °F 29.7 in Calm   6 mph 83% 0 in 186 W/m2
12:28 37.9 °F 33.6 °F 29.7 in East 2.9 mph 3 mph 84% 0 in 176 W/m2
12:33 37.9 °F 33.3 °F 29.7 in Calm   3 mph 83% 0 in 155 W/m2
12:38 37.9 °F 33.3 °F 29.7 in East 2 mph 3 mph 83% 0 in 146 W/m2
12:43 37.9 °F 32.9 °F 29.7 in SSE 4 mph 6 mph 82% 0 in 142 W/m2
12:48 37.9 °F 33.3 °F 29.7 in ENE 0.9 mph 5 mph 83% 0 in 142 W/m2
12:53 37.9 °F 33.3 °F 29.7 in ENE 0.9 mph 6 mph 83% 0 in 142 W/m2
12:58 38.1 °F 33.4 °F 29.7 in ESE 4 mph 4 mph 83% 0 in 146 W/m2
13:03 38.1 °F 33.1 °F 29.7 in Calm   4 mph 82% 0 in 130 W/m2
13:08 38.3 °F 33.3 °F 29.7 in East 2.9 mph 6 mph 82% 0 in 148 W/m2
13:13 38.3 °F 33.3 °F 29.7 in East 2.9 mph 4 mph 82% 0 in 142 W/m2
13:18 38.3 °F 33.3 °F 29.7 in ESE 0.9 mph 4 mph 82% 0 in 148 W/m2
13:23 38.3 °F 33.3 °F 29.7 in East 2 mph 7 mph 82% 0 in 151 W/m2
13:28 38.3 °F 33.3 °F 29.7 in ESE 2.9 mph 5 mph 82% 0 in 144 W/m2
13:33 38.1 °F 32.7 °F 29.7 in East 0.9 mph 7 mph 81% 0 in 128 W/m2
13:38 37.9 °F 32.7 °F 29.7 in ESE 2.9 mph 3 mph 81% 0 in 116 W/m2
13:43 37.9 °F 32.9 °F 29.7 in ENE 2.9 mph 5 mph 82% 0 in 134 W/m2
13:48 37.9 °F 32.9 °F 29.7 in East 2.9 mph 4 mph 82% 0 in 148 W/m2
13:53 38.1 °F 33.1 °F 29.7 in ENE 2.9 mph 7 mph 82% 0 in 132 W/m2
13:58 38.1 °F 32.7 °F 29.7 in East 4 mph 5 mph 81% 0 in 137 W/m2
14:03 37.9 °F 32.7 °F 29.7 in East 2.9 mph 4 mph 81% 0 in 130 W/m2
14:08 37.9 °F 32.7 °F 29.7 in East 2 mph 5 mph 81% 0 in 130 W/m2
14:13 37.9 °F 32.7 °F 29.7 in ENE 2 mph 5 mph 81% 0 in 120 W/m2
14:18 37.9 °F 32.7 °F 29.7 in East 2 mph 3 mph 81% 0 in 121 W/m2
14:23 37.9 °F 32.7 °F 29.7 in East 2 mph 3 mph 81% 0 in 120 W/m2
14:28 37.9 °F 32.7 °F 29.7 in ENE 4 mph 4 mph 81% 0 in 91 W/m2
14:33 37.8 °F 32.5 °F 29.7 in ESE 2 mph 4 mph 81% 0 in 74 W/m2
14:38 37.8 °F 32.7 °F 29.7 in ENE 4 mph 6 mph 82% 0 in 62 W/m2
14:43 37.4 °F 32.4 °F 29.7 in ESE 2 mph 5 mph 82% 0 in 58 W/m2
14:48 37 °F 32 °F 29.7 in ENE 2.9 mph 3 mph 82% 0 in 63 W/m2
14:53 37 °F 32 °F 29.7 in ESE 0.9 mph 4 mph 82% 0 in 54 W/m2
Juneau County Weather
Compliments of Weather Underground - 2 mb